Applegate, California
Current Conditions -  °F | °C
As of 12:35 AM on Saturday 20 Dec 2014 (Local Time) from KAUN Reporting Station
Overcast Overcast  
Wind Chill: 48°   Ceiling: 800
Heat Index: 48°   Visibility: 1.5mi
Dew Point: 48°   Wind: 3mph
Humidity: 100%   Direction: 150°SSE
Pressure: 30.16"   Gusts: NA
Location:  39°N, 120.99°W
Report Text: KAUN 200835Z AUTO 15003KT 1 1/2SM SCT002 OVC008 09/09 A3016 RMK AO1
Loading
Personal Weather Stations






























Interactive Weather Map New forecast layout! Learn more

10-Day Weather Forecast

Advertisements
Track Severe Weather on mobile